Time;durP1;ratioP1;P1;durP2;ratioP2;P2;SDS_P1;SDS_P2;PMS_P1;PMS_P2;Temp;Humidity;BMP_temperature;BMP_pressure;BME280_temperature;BME280_humidity;BME280_pressure;Samples;Min_cycle;Max_cycle;Signal;HPM_P1;HPM_P2
2023/06/16 00:00:19;;;;;;;1.70;1.30;;;18.60;82.30;;;;;;4995255;28;20492;-80
2023/06/16 00:02:48;;;;;;;1.50;0.90;;;18.50;82.40;;;;;;4996186;28;20472;-77
2023/06/16 00:05:15;;;;;;;1.47;0.90;;;18.50;82.80;;;;;;4996462;28;20692;-81
2023/06/16 00:07:42;;;;;;;1.47;1.00;;;18.50;83.50;;;;;;4991768;28;20477;-78
2023/06/16 00:10:09;;;;;;;1.50;1.00;;;18.40;82.80;;;;;;4995699;28;20472;-80
2023/06/16 00:12:37;;;;;;;1.50;0.90;;;18.40;82.60;;;;;;4988067;28;20567;-77
2023/06/16 00:15:08;;;;;;;1.50;0.90;;;18.30;82.60;;;;;;4995228;28;20461;-78
2023/06/16 00:17:36;;;;;;;1.43;0.90;;;18.30;83.50;;;;;;4996801;28;20485;-78
2023/06/16 00:20:07;;;;;;;1.47;0.90;;;18.20;83.10;;;;;;4994123;28;20481;-80
2023/06/16 00:22:34;;;;;;;3.40;1.93;;;18.20;83.50;;;;;;4991668;28;20515;-81
2023/06/16 00:25:01;;;;;;;1.47;0.90;;;18.20;83.90;;;;;;4995031;28;20472;-79
2023/06/16 00:27:28;;;;;;;1.47;0.90;;;18.10;83.40;;;;;;4989377;28;20926;-79
2023/06/16 00:29:54;;;;;;;1.50;0.97;;;18.10;83.70;;;;;;4992062;28;20863;-80
2023/06/16 00:32:23;;;;;;;1.63;1.53;;;18.10;83.90;;;;;;4990899;28;20487;-79
2023/06/16 00:34:50;;;;;;;1.43;0.97;;;18.00;83.70;;;;;;4995225;28;20951;-78
2023/06/16 00:37:16;;;;;;;1.47;0.93;;;18.00;83.60;;;;;;4990858;28;20485;-82
2023/06/16 00:39:43;;;;;;;1.50;1.00;;;18.00;83.80;;;;;;4996555;28;20483;-81
2023/06/16 00:42:10;;;;;;;1.70;1.53;;;18.00;83.50;;;;;;4991581;28;20482;-81
2023/06/16 00:44:36;;;;;;;1.43;1.00;;;17.90;84.20;;;;;;4996058;28;20453;-79
2023/06/16 00:47:04;;;;;;;1.50;1.00;;;17.90;83.60;;;;;;4986692;28;20485;-80
2023/06/16 00:49:32;;;;;;;1.47;0.90;;;17.90;85.20;;;;;;4995172;28;20491;-78
2023/06/16 00:51:59;;;;;;;1.43;1.00;;;17.80;85.30;;;;;;4989825;28;20489;-78
2023/06/16 00:54:27;;;;;;;1.43;0.90;;;17.80;84.10;;;;;;4994924;28;20911;-79
2023/06/16 00:56:54;;;;;;;1.47;1.00;;;17.80;84.10;;;;;;4990719;28;20480;-79
2023/06/16 00:59:26;;;;;;;1.50;0.90;;;17.80;85.20;;;;;;4997585;28;21000;-81
2023/06/16 01:01:54;;;;;;;1.50;1.00;;;17.70;85.00;;;;;;4987454;28;20495;-79
2023/06/16 01:04:21;;;;;;;1.47;0.90;;;17.70;85.50;;;;;;5001752;28;20457;-82
2023/06/16 01:06:58;;;;;;;1.50;0.90;;;17.70;85.60;;;;;;4994563;28;20484;-82
2023/06/16 01:09:33;;;;;;;1.50;1.00;;;17.70;85.50;;;;;;4996512;28;20488;-77
2023/06/16 01:12:07;;;;;;;1.50;1.00;;;17.60;85.50;;;;;;4988771;28;20552;-79
2023/06/16 01:14:46;;;;;;;1.50;0.90;;;17.60;85.80;;;;;;4997051;28;20673;-79
2023/06/16 01:17:15;;;;;;;1.43;0.90;;;17.60;85.50;;;;;;4996826;28;20571;-78
2023/06/16 01:19:50;;;;;;;1.43;0.90;;;17.60;85.30;;;;;;4998549;28;21023;-80
2023/06/16 01:22:30;;;;;;;1.43;0.90;;;17.50;85.30;;;;;;4998187;28;20471;-78
2023/06/16 01:25:03;;;;;;;1.47;0.90;;;17.50;85.00;;;;;;5001443;28;20456;-81
2023/06/16 01:27:30;;;;;;;1.47;1.00;;;17.40;85.70;;;;;;4992567;28;20564;-80
2023/06/16 01:29:58;;;;;;;1.43;0.90;;;17.40;85.50;;;;;;4999061;28;20489;-80
2023/06/16 01:32:28;;;;;;;1.50;0.90;;;17.40;85.20;;;;;;4991225;28;20484;-77
2023/06/16 01:34:56;;;;;;;1.50;1.07;;;17.40;85.20;;;;;;4997356;28;20476;-80
2023/06/16 01:37:23;;;;;;;1.50;1.00;;;17.30;85.60;;;;;;4988904;28;20488;-79
2023/06/16 01:39:51;;;;;;;1.50;1.00;;;17.30;85.60;;;;;;4998725;28;20495;-82
2023/06/16 01:42:20;;;;;;;1.50;1.00;;;17.30;85.80;;;;;;4990037;28;20484;-78
2023/06/16 01:44:48;;;;;;;1.50;1.10;;;17.30;85.90;;;;;;4998211;28;20476;-80
2023/06/16 01:47:15;;;;;;;1.43;0.90;;;17.20;86.20;;;;;;4990907;28;20644;-77
2023/06/16 01:49:42;;;;;;;1.50;1.00;;;17.20;86.00;;;;;;4997792;28;20489;-78
2023/06/16 01:52:10;;;;;;;1.47;1.00;;;17.20;86.60;;;;;;4995662;28;20480;-79
2023/06/16 01:54:37;;;;;;;1.50;0.90;;;17.20;86.10;;;;;;5001064;28;20944;-78
2023/06/16 01:57:04;;;;;;;1.50;1.00;;;17.10;86.30;;;;;;4991064;28;20481;-79
2023/06/16 01:59:33;;;;;;;1.43;0.90;;;17.10;86.50;;;;;;4999602;28;20753;-77
2023/06/16 02:02:05;;;;;;;1.50;0.97;;;17.10;86.10;;;;;;4993387;28;20476;-79
2023/06/16 02:04:33;;;;;;;1.50;1.00;;;17.00;86.40;;;;;;5000648;28;20472;-82
2023/06/16 02:07:04;;;;;;;1.50;1.00;;;17.00;86.30;;;;;;4991297;28;20512;-82
2023/06/16 02:09:35;;;;;;;1.47;1.00;;;17.00;87.30;;;;;;4993477;28;20484;-78
2023/06/16 02:12:05;;;;;;;1.50;1.00;;;17.00;86.70;;;;;;4995169;28;20574;-82
2023/06/16 02:14:34;;;;;;;1.50;1.00;;;17.00;86.80;;;;;;5001437;28;20837;-78
2023/06/16 02:17:05;;;;;;;1.47;0.90;;;16.90;87.80;;;;;;4991422;28;20519;-81
2023/06/16 02:19:32;;;;;;;1.50;1.00;;;16.90;87.70;;;;;;5000543;28;20493;-77
2023/06/16 02:21:59;;;;;;;1.43;1.00;;;16.90;87.90;;;;;;4987587;28;20496;-79
2023/06/16 02:24:26;;;;;;;1.43;0.90;;;16.90;88.20;;;;;;4996917;28;20472;-79
2023/06/16 02:26:53;;;;;;;1.43;1.00;;;16.90;87.50;;;;;;4991530;28;20476;-81
2023/06/16 02:29:20;;;;;;;1.50;1.00;;;16.80;88.80;;;;;;4999147;28;20528;-78
2023/06/16 02:31:49;;;;;;;1.47;0.90;;;16.80;88.90;;;;;;4988760;28;20488;-80
2023/06/16 02:34:16;;;;;;;1.47;1.00;;;16.80;89.10;;;;;;5001472;28;20488;-80
2023/06/16 02:36:43;;;;;;;1.47;1.00;;;16.80;88.20;;;;;;4987207;28;20497;-78
2023/06/16 02:39:10;;;;;;;1.40;1.00;;;16.80;89.20;;;;;;4995417;28;20449;-79
2023/06/16 02:41:37;;;;;;;1.50;1.00;;;16.70;88.20;;;;;;4987925;28;21011;-82
2023/06/16 02:44:04;;;;;;;1.47;0.90;;;16.70;88.60;;;;;;5001151;28;20556;-79
2023/06/16 02:46:31;;;;;;;1.47;1.00;;;16.70;89.20;;;;;;4986064;28;20491;-81
2023/06/16 02:48:59;;;;;;;1.43;0.90;;;16.60;89.00;;;;;;4997497;28;20555;-81
2023/06/16 02:51:26;;;;;;;1.47;1.00;;;16.60;89.70;;;;;;4985790;28;20552;-80
2023/06/16 02:53:53;;;;;;;1.43;1.00;;;16.60;90.20;;;;;;4996289;28;20485;-78
2023/06/16 02:56:20;;;;;;;1.50;1.00;;;16.60;90.40;;;;;;4984752;28;20488;-78
2023/06/16 02:58:47;;;;;;;1.50;1.00;;;16.60;90.50;;;;;;4996287;28;20977;-77
2023/06/16 03:01:15;;;;;;;1.43;0.90;;;16.50;90.70;;;;;;4985097;28;20467;-80
2023/06/16 03:03:42;;;;;;;1.50;1.00;;;16.50;90.40;;;;;;4993568;28;20461;-80
2023/06/16 03:06:10;;;;;;;1.50;1.00;;;16.50;90.70;;;;;;4983528;28;20484;-79
2023/06/16 03:08:36;;;;;;;1.43;0.90;;;16.50;91.50;;;;;;4995134;28;20461;-81
2023/06/16 03:11:03;;;;;;;1.50;0.90;;;16.40;91.40;;;;;;4983456;28;20820;-80
2023/06/16 03:13:30;;;;;;;1.50;0.90;;;16.40;91.50;;;;;;4992014;28;21010;-80
2023/06/16 03:15:57;;;;;;;1.50;1.00;;;16.40;91.10;;;;;;4983762;28;20469;-79
2023/06/16 03:18:24;;;;;;;1.50;1.00;;;16.40;90.90;;;;;;4998815;28;20935;-81
2023/06/16 03:20:50;;;;;;;1.47;1.00;;;16.40;92.00;;;;;;4981595;28;20485;-80
2023/06/16 03:23:18;;;;;;;1.50;1.00;;;16.40;92.80;;;;;;4995445;28;20468;-81
2023/06/16 03:25:46;;;;;;;1.47;1.00;;;16.40;91.80;;;;;;4990066;28;20465;-81
2023/06/16 03:28:14;;;;;;;1.47;1.00;;;16.30;92.90;;;;;;4965800;28;20473;-78
2023/06/16 03:30:41;;;;;;;1.50;1.00;;;16.30;92.80;;;;;;4991194;28;20492;-82
2023/06/16 03:33:08;;;;;;;1.47;1.00;;;16.30;93.50;;;;;;4985087;28;20505;-78
2023/06/16 03:35:34;;;;;;;1.50;1.10;;;16.30;92.70;;;;;;4987586;28;20465;-81
2023/06/16 03:38:01;;;;;;;1.47;1.00;;;16.30;93.10;;;;;;4988064;28;20477;-78
2023/06/16 03:40:29;;;;;;;1.50;0.97;;;16.30;93.20;;;;;;4992152;28;20995;-80
2023/06/16 03:42:56;;;;;;;1.50;1.00;;;16.30;92.90;;;;;;4991137;28;20486;-84
2023/06/16 03:45:22;;;;;;;1.47;1.00;;;16.30;93.40;;;;;;4998377;28;20457;-79
2023/06/16 03:47:49;;;;;;;1.50;1.00;;;16.30;92.40;;;;;;4982290;28;20487;-78
2023/06/16 03:50:16;;;;;;;1.47;1.00;;;16.30;92.50;;;;;;4995620;28;21003;-75
2023/06/16 03:52:43;;;;;;;1.50;1.00;;;16.30;92.60;;;;;;4990936;28;20481;-75
2023/06/16 03:55:10;;;;;;;1.40;0.90;;;16.30;93.20;;;;;;4994715;28;20488;-75
2023/06/16 03:57:38;;;;;;;1.50;1.00;;;16.40;92.60;;;;;;4991202;28;20489;-76
2023/06/16 04:00:08;;;;;;;1.50;0.93;;;16.40;93.00;;;;;;4996555;28;20491;-77
2023/06/16 04:02:36;;;;;;;1.47;0.90;;;16.40;93.60;;;;;;4990783;28;20488;-76
2023/06/16 04:05:03;;;;;;;1.50;0.90;;;16.40;94.50;;;;;;4990833;28;20524;-76
2023/06/16 04:07:30;;;;;;;1.50;1.00;;;16.40;94.90;;;;;;4988621;28;20484;-76
2023/06/16 04:09:57;;;;;;;1.47;1.00;;;16.50;95.10;;;;;;4990777;28;20492;-77
2023/06/16 04:12:23;;;;;;;1.47;0.90;;;16.50;94.70;;;;;;4986997;28;20692;-77
2023/06/16 04:14:52;;;;;;;1.47;0.90;;;16.50;94.10;;;;;;4997708;28;20489;-82
2023/06/16 04:17:18;;;;;;;1.50;0.97;;;16.50;94.20;;;;;;4993265;28;20492;-78
2023/06/16 04:19:46;;;;;;;1.50;1.00;;;16.60;95.00;;;;;;4988299;28;20488;-82
2023/06/16 04:22:13;;;;;;;1.50;1.00;;;16.60;94.10;;;;;;4987744;28;20888;-77
2023/06/16 04:24:39;;;;;;;1.50;0.90;;;16.60;94.10;;;;;;4988287;28;20540;-79
2023/06/16 04:27:08;;;;;;;1.40;0.90;;;16.70;93.80;;;;;;4989139;28;20553;-78
2023/06/16 04:29:41;;;;;;;1.50;1.10;;;16.70;93.00;;;;;;5000799;28;20575;-80
2023/06/16 04:32:13;;;;;;;1.50;1.00;;;16.70;92.70;;;;;;4986297;28;20480;-78
2023/06/16 04:34:40;;;;;;;1.47;1.00;;;16.80;93.20;;;;;;4989266;28;20508;-78
2023/06/16 04:37:09;;;;;;;1.47;0.90;;;16.90;92.20;;;;;;4990203;28;20485;-81
2023/06/16 04:39:37;;;;;;;1.50;0.90;;;16.90;92.00;;;;;;4992574;28;20906;-77
2023/06/16 04:42:07;;;;;;;1.47;0.90;;;17.00;92.60;;;;;;4980865;28;20529;-79
2023/06/16 04:44:34;;;;;;;1.50;0.90;;;17.00;92.70;;;;;;4998694;28;20480;-81
2023/06/16 04:47:01;;;;;;;1.50;1.00;;;17.20;93.50;;;;;;4982279;28;20477;-78
2023/06/16 04:49:30;;;;;;;1.43;1.00;;;17.30;92.70;;;;;;4993877;28;20481;-77
2023/06/16 04:51:57;;;;;;;1.50;0.93;;;17.50;91.70;;;;;;4985105;28;20518;-77
2023/06/16 04:54:24;;;;;;;1.47;0.90;;;17.60;92.50;;;;;;4996951;28;20499;-79
2023/06/16 04:56:51;;;;;;;1.47;0.90;;;17.80;91.20;;;;;;4987652;28;20508;-76
2023/06/16 04:59:18;;;;;;;1.40;1.00;;;18.00;90.90;;;;;;4992961;28;20924;-78
2023/06/16 05:01:45;;;;;;;1.50;0.90;;;18.10;90.40;;;;;;4990891;28;20809;-77
2023/06/16 05:04:11;;;;;;;1.40;0.90;;;18.30;89.30;;;;;;4998810;28;20461;-76
2023/06/16 05:06:40;;;;;;;1.40;0.90;;;18.50;89.80;;;;;;4989967;28;20483;-80
2023/06/16 05:09:07;;;;;;;1.50;1.10;;;18.70;89.10;;;;;;5006871;28;20472;-80
2023/06/16 05:11:33;;;;;;;1.40;0.90;;;19.00;87.90;;;;;;4993037;28;20503;-80
2023/06/16 05:14:00;;;;;;;1.47;0.90;;;19.30;87.70;;;;;;4999423;28;20488;-77
2023/06/16 05:16:27;;;;;;;1.50;0.90;;;19.60;86.50;;;;;;4992203;28;20488;-82
2023/06/16 05:18:54;;;;;;;1.43;0.93;;;19.80;84.40;;;;;;4999559;28;20737;-77
2023/06/16 05:21:25;;;;;;;1.43;0.90;;;20.00;84.30;;;;;;4995505;28;20510;-78
2023/06/16 05:23:53;;;;;;;1.47;0.90;;;20.10;84.00;;;;;;4991136;28;20523;-79
2023/06/16 05:26:21;;;;;;;1.43;0.90;;;20.30;83.80;;;;;;4985904;28;20484;-77
2023/06/16 05:28:49;;;;;;;1.50;0.90;;;20.50;82.50;;;;;;4993057;28;20468;-76
2023/06/16 05:31:16;;;;;;;1.50;1.00;;;20.70;81.90;;;;;;4979789;28;20480;-75
2023/06/16 05:33:42;;;;;;;1.50;1.10;;;20.90;81.20;;;;;;4990439;28;20493;-76
2023/06/16 05:36:10;;;;;;;1.50;0.90;;;20.90;78.90;;;;;;4986416;28;20505;-78
2023/06/16 05:38:36;;;;;;;1.47;0.90;;;20.90;78.50;;;;;;4998129;28;20523;-79
2023/06/16 05:41:05;;;;;;;1.60;1.30;;;20.80;78.60;;;;;;4988359;28;20481;-76
2023/06/16 05:43:32;;;;;;;1.43;0.90;;;20.80;78.90;;;;;;4994817;28;20869;-78
2023/06/16 05:45:58;;;;;;;1.50;0.90;;;20.80;79.00;;;;;;4986957;28;20469;-76
2023/06/16 05:48:25;;;;;;;1.50;0.90;;;20.80;79.80;;;;;;4998210;28;20493;-78
2023/06/16 05:50:52;;;;;;;1.40;0.90;;;21.00;78.90;;;;;;4988468;28;20489;-79
2023/06/16 05:53:19;;;;;;;1.50;0.90;;;21.20;77.20;;;;;;4994277;28;21033;-78
2023/06/16 05:55:46;;;;;;;1.47;0.90;;;21.40;77.70;;;;;;4999279;28;20460;-78
2023/06/16 05:58:14;;;;;;;1.43;0.90;;;21.50;76.80;;;;;;4991041;28;20479;-78
2023/06/16 06:00:41;;;;;;;1.50;0.90;;;21.80;75.90;;;;;;5001009;28;20548;-77
2023/06/16 06:03:08;;;;;;;1.47;0.90;;;21.90;76.20;;;;;;4988991;28;20488;-79
2023/06/16 06:05:35;;;;;;;1.47;0.90;;;21.90;76.00;;;;;;4999700;28;20549;-79
2023/06/16 06:08:01;;;;;;;1.50;0.90;;;22.10;75.60;;;;;;4989763;28;21030;-79
2023/06/16 06:10:29;;;;;;;1.43;0.90;;;22.20;75.40;;;;;;4999595;28;20488;-79
2023/06/16 06:12:55;;;;;;;1.47;0.90;;;22.20;75.10;;;;;;4987952;28;20491;-75
2023/06/16 06:15:23;;;;;;;1.50;0.90;;;22.40;74.90;;;;;;4999220;28;20572;-79
2023/06/16 06:17:50;;;;;;;1.60;1.20;;;22.60;75.00;;;;;;4987113;28;20567;-80
2023/06/16 06:20:17;;;;;;;1.50;0.90;;;22.70;74.00;;;;;;4996392;28;20484;-77
2023/06/16 06:22:44;;;;;;;1.50;0.90;;;22.90;74.80;;;;;;4983670;28;20484;-82
2023/06/16 06:25:13;;;;;;;1.43;0.90;;;23.00;72.40;;;;;;4997947;28;20461;-78
2023/06/16 06:27:39;;;;;;;1.50;0.90;;;23.20;72.50;;;;;;4981792;28;20587;-77
2023/06/16 06:30:07;;;;;;;1.50;0.90;;;23.30;72.70;;;;;;4999502;28;20475;-79
2023/06/16 06:32:37;;;;;;;1.43;0.90;;;23.40;72.40;;;;;;4988574;28;20519;-78
2023/06/16 06:35:04;;;;;;;1.50;0.80;;;23.60;71.50;;;;;;5001672;28;20477;-80
2023/06/16 06:37:31;;;;;;;1.50;1.00;;;23.80;72.00;;;;;;4988778;28;20496;-80
2023/06/16 06:39:58;;;;;;;1.47;0.90;;;24.00;72.90;;;;;;4999432;28;20860;-78
2023/06/16 06:42:26;;;;;;;1.43;0.90;;;24.20;70.50;;;;;;4987927;28;20559;-77
2023/06/16 06:44:53;;;;;;;1.43;0.90;;;24.40;70.40;;;;;;4999309;28;20453;-77
2023/06/16 06:47:21;;;;;;;1.50;0.90;;;24.50;70.00;;;;;;4989138;28;20512;-77
2023/06/16 06:49:50;;;;;;;1.50;0.90;;;24.70;70.20;;;;;;4992419;28;20493;-78
2023/06/16 06:52:16;;;;;;;1.43;0.83;;;24.90;69.90;;;;;;4990822;28;20536;-77
2023/06/16 06:54:43;;;;;;;1.47;0.83;;;25.00;68.90;;;;;;4997639;28;20487;-78
2023/06/16 06:57:10;;;;;;;1.47;0.90;;;25.10;68.00;;;;;;4988989;28;20500;-79
2023/06/16 06:59:38;;;;;;;1.47;0.90;;;25.20;69.40;;;;;;4998772;28;20496;-78
2023/06/16 07:02:06;;;;;;;1.40;0.83;;;25.30;68.70;;;;;;4991970;28;20485;-79
2023/06/16 07:04:33;;;;;;;1.43;0.83;;;25.40;69.10;;;;;;5000921;28;21283;-79
2023/06/16 07:07:02;;;;;;;1.47;0.90;;;25.50;68.80;;;;;;4986548;28;20485;-81
2023/06/16 07:09:30;;;;;;;1.47;0.90;;;25.60;67.10;;;;;;5001799;28;20484;-79
2023/06/16 07:11:57;;;;;;;1.50;0.90;;;25.80;68.10;;;;;;4987667;28;20480;-79
2023/06/16 07:14:23;;;;;;;1.50;0.90;;;25.90;67.00;;;;;;4998665;28;20485;-81
2023/06/16 07:16:50;;;;;;;1.43;0.90;;;26.00;68.40;;;;;;4989987;28;20492;-79
2023/06/16 07:21:45;;;;;;;1.50;0.90;;;26.10;67.40;;;;;;4990796;28;20504;-79
2023/06/16 07:24:14;;;;;;;1.50;0.80;;;26.30;67.80;;;;;;5000873;28;20870;-80
2023/06/16 07:26:41;;;;;;;1.50;0.80;;;26.30;66.90;;;;;;4992434;28;20483;-80
2023/06/16 07:29:08;;;;;;;1.47;0.80;;;26.40;67.70;;;;;;4994823;28;20565;-80
2023/06/16 07:31:35;;;;;;;1.50;0.87;;;26.60;67.90;;;;;;4974027;28;20487;-79
2023/06/16 07:34:02;;;;;;;1.47;0.80;;;26.70;66.20;;;;;;4980537;28;20501;-85
2023/06/16 07:36:30;;;;;;;1.50;0.90;;;26.90;67.00;;;;;;4973610;28;20604;-79
2023/06/16 07:38:56;;;;;;;1.43;0.83;;;27.00;66.30;;;;;;4990066;28;20487;-82
2023/06/16 07:41:24;;;;;;;1.47;0.87;;;27.10;66.60;;;;;;4973591;28;20496;-81
2023/06/16 07:43:52;;;;;;;1.50;0.80;;;27.30;65.80;;;;;;4983750;28;20469;-85
2023/06/16 07:46:19;;;;;;;1.47;0.80;;;27.40;64.80;;;;;;4981401;28;20480;-80
2023/06/16 07:48:46;;;;;;;1.40;0.90;;;27.50;65.70;;;;;;4983803;28;20481;-82
2023/06/16 07:51:13;;;;;;;1.50;0.90;;;27.60;64.60;;;;;;4974486;28;20481;-78
2023/06/16 07:53:41;;;;;;;1.43;0.80;;;27.80;65.60;;;;;;4982610;28;21078;-82
2023/06/16 07:56:08;;;;;;;1.43;0.80;;;27.90;64.20;;;;;;4974351;28;20485;-81
2023/06/16 07:58:38;;;;;;;1.47;0.80;;;28.00;64.20;;;;;;4986592;28;20487;-82
2023/06/16 08:01:05;;;;;;;1.47;0.80;;;28.10;64.00;;;;;;4971904;28;20479;-85
2023/06/16 08:03:32;;;;;;;1.50;1.03;;;28.20;64.50;;;;;;4981585;28;20516;-80
2023/06/16 08:05:58;;;;;;;1.50;0.80;;;28.30;64.50;;;;;;4972104;28;20571;-82
2023/06/16 08:08:27;;;;;;;1.43;0.80;;;28.40;64.50;;;;;;4980953;28;20477;-81
2023/06/16 08:10:55;;;;;;;1.47;0.80;;;28.40;64.30;;;;;;4971488;28;20500;-83
2023/06/16 08:13:22;;;;;;;1.43;0.80;;;28.50;63.80;;;;;;4983306;28;20472;-84
2023/06/16 08:15:50;;;;;;;5.50;2.23;;;28.50;63.20;;;;;;4970987;28;20477;-81
2023/06/16 08:18:19;;;;;;;1.43;0.80;;;28.40;63.40;;;;;;4980802;28;20482;-81
2023/06/16 08:20:46;;;;;;;1.43;0.80;;;28.60;63.30;;;;;;4981016;28;20473;-82
2023/06/16 08:23:12;;;;;;;1.47;0.80;;;28.80;63.00;;;;;;4951406;28;20473;-82
2023/06/16 08:25:39;;;;;;;1.40;0.80;;;28.90;62.30;;;;;;4977099;28;20457;-85
2023/06/16 08:28:07;;;;;;;1.47;0.80;;;28.90;61.60;;;;;;4969981;28;20499;-82
2023/06/16 08:30:34;;;;;;;1.43;0.80;;;29.10;61.20;;;;;;4979958;28;20963;-83
2023/06/16 08:33:04;;;;;;;1.50;1.00;;;29.10;58.00;;;;;;4973905;28;21058;-81
2023/06/16 08:35:31;;;;;;;1.50;0.90;;;29.20;57.70;;;;;;4979712;28;20487;-82
2023/06/16 08:37:58;;;;;;;1.47;0.80;;;29.20;58.00;;;;;;4978237;28;21018;-82
2023/06/16 08:40:25;;;;;;;1.47;0.80;;;29.30;57.90;;;;;;4977417;28;20457;-82
2023/06/16 08:42:54;;;;;;;1.47;0.80;;;29.40;59.30;;;;;;4974406;28;20489;-80
2023/06/16 08:45:21;;;;;;;1.47;0.80;;;29.40;57.50;;;;;;4978790;28;20493;-79
2023/06/16 08:47:48;;;;;;;1.43;0.80;;;29.60;58.40;;;;;;4969146;28;20500;-81
2023/06/16 08:50:21;;;;;;;1.50;0.80;;;29.70;58.80;;;;;;4977210;28;20678;-80
2023/06/16 08:52:49;;;;;;;1.47;0.80;;;29.90;58.10;;;;;;4960968;28;20460;-78
2023/06/16 08:55:16;;;;;;;1.43;0.80;;;30.00;58.90;;;;;;4974753;28;20496;-79
2023/06/16 08:57:46;;;;;;;1.50;0.90;;;30.00;57.40;;;;;;4957139;28;20488;-79
2023/06/16 09:00:14;;;;;;;1.43;0.80;;;30.00;55.30;;;;;;4974378;28;20936;-79
2023/06/16 09:02:44;;;;;;;1.40;0.80;;;30.10;57.90;;;;;;4956846;28;20573;-79
2023/06/16 09:05:11;;;;;;;1.43;0.80;;;30.30;56.90;;;;;;4974213;28;20462;-78
2023/06/16 09:07:42;;;;;;;1.40;0.80;;;30.50;55.30;;;;;;4963218;28;20493;-80
2023/06/16 09:10:09;;;;;;;1.43;0.80;;;30.60;56.60;;;;;;4971847;28;20222;-80
2023/06/16 09:12:36;;;;;;;1.40;0.80;;;30.60;54.20;;;;;;4966072;28;20485;-80
2023/06/16 09:15:09;;;;;;;1.43;0.80;;;30.60;55.90;;;;;;4977718;28;20619;-81
2023/06/16 09:17:37;;;;;;;1.40;0.80;;;30.70;55.50;;;;;;4966817;28;20553;-79
2023/06/16 09:20:06;;;;;;;1.40;0.80;;;30.70;54.80;;;;;;4973463;28;20529;-80
2023/06/16 09:22:33;;;;;;;1.43;0.80;;;30.70;54.50;;;;;;4964484;28;20231;-79
2023/06/16 09:25:04;;;;;;;1.40;0.80;;;30.70;53.80;;;;;;4974501;28;20198;-79
2023/06/16 09:27:44;;;;;;;1.50;0.80;;;30.90;56.10;;;;;;4961401;28;20222;-80
2023/06/16 09:30:16;;;;;;;1.40;0.80;;;31.00;54.80;;;;;;4968994;28;20222;-81
2023/06/16 09:32:45;;;;;;;1.40;0.80;;;31.10;53.40;;;;;;4956065;28;20319;-81
2023/06/16 09:35:19;;;;;;;1.40;0.80;;;30.90;53.00;;;;;;4972554;28;20224;-80
2023/06/16 09:37:47;;;;;;;1.47;0.90;;;31.00;52.80;;;;;;4960968;28;20269;-79
2023/06/16 09:40:16;;;;;;;1.43;0.80;;;31.10;53.60;;;;;;4976923;28;20222;-81
2023/06/16 09:42:44;;;;;;;1.40;0.80;;;31.20;53.30;;;;;;4966368;28;20241;-79
2023/06/16 09:45:12;;;;;;;1.40;0.80;;;31.20;53.60;;;;;;4977197;28;20230;-79
2023/06/16 09:47:40;;;;;;;1.40;0.80;;;31.30;52.40;;;;;;4963725;28;20225;-79
2023/06/16 09:50:11;;;;;;;1.40;0.80;;;31.40;52.20;;;;;;4976831;28;20312;-82
2023/06/16 09:52:38;;;;;;;1.40;0.80;;;31.50;52.30;;;;;;4966253;28;20240;-80
2023/06/16 09:55:07;;;;;;;1.40;0.80;;;31.40;51.40;;;;;;4976666;28;20198;-78
2023/06/16 09:57:35;;;;;;;1.40;0.80;;;31.40;50.60;;;;;;4963554;28;20252;-79
2023/06/16 10:00:04;;;;;;;1.40;0.80;;;31.30;51.80;;;;;;4975273;28;20228;-79
2023/06/16 10:02:32;;;;;;;1.40;0.80;;;31.40;50.50;;;;;;4967527;28;20268;-81
2023/06/16 10:05:02;;;;;;;1.40;0.80;;;31.40;50.70;;;;;;4975297;28;20237;-80
2023/06/16 10:07:31;;;;;;;1.50;0.90;;;31.50;51.20;;;;;;4964414;28;20234;-82
2023/06/16 10:10:01;;;;;;;1.40;0.80;;;31.60;51.70;;;;;;4975388;28;20222;-79
2023/06/16 10:12:28;;;;;;;1.40;0.80;;;31.70;49.50;;;;;;4965809;28;20293;-81
2023/06/16 10:14:59;;;;;;;1.80;1.43;;;31.80;51.00;;;;;;4978319;28;20209;-77
2023/06/16 10:17:28;;;;;;;1.40;0.80;;;32.00;51.60;;;;;;4962522;28;20488;-81
2023/06/16 10:19:56;;;;;;;1.43;0.80;;;32.30;50.70;;;;;;4976394;28;20237;-81
2023/06/16 10:22:23;;;;;;;1.40;0.80;;;32.40;50.90;;;;;;4960998;28;20238;-81
2023/06/16 10:24:50;;;;;;;1.40;0.80;;;32.50;49.80;;;;;;4978736;28;21045;-79
2023/06/16 10:27:18;;;;;;;1.40;0.80;;;32.50;50.10;;;;;;4960693;28;20231;-81
2023/06/16 10:29:46;;;;;;;1.40;0.80;;;32.50;50.20;;;;;;4974920;28;20230;-79
2023/06/16 10:32:14;;;;;;;1.40;0.80;;;32.60;49.80;;;;;;4966868;28;20351;-82
2023/06/16 10:34:48;;;;;;;1.40;0.80;;;32.50;47.80;;;;;;4980688;28;20213;-79
2023/06/16 10:37:16;;;;;;;1.40;0.88;;;32.50;48.60;;;;;;4968229;28;20259;-79
2023/06/16 10:39:43;;;;;;;1.40;0.80;;;32.50;49.60;;;;;;4980250;28;20590;-82
2023/06/16 10:42:13;;;;;;;1.40;0.80;;;32.50;49.60;;;;;;4969458;28;20857;-79
2023/06/16 10:44:40;;;;;;;1.40;0.80;;;32.70;50.40;;;;;;4980455;28;21717;-81
2023/06/16 10:47:38;;;;;;;1.40;0.80;;;32.70;48.00;;;;;;4965776;28;20230;-80
2023/06/16 10:52:55;;;;;;;1.40;0.80;;;32.90;49.10;;;;;;4980867;28;20237;-81
2023/06/16 10:55:42;;;;;;;1.40;0.88;;;32.80;48.70;;;;;;5004785;28;20198;-83
2023/06/16 10:58:39;;;;;;;1.40;0.80;;;32.50;48.30;;;;;;4974388;28;20320;-82
2023/06/16 11:01:23;;;;;;;1.40;0.80;;;32.10;50.30;;;;;;4966738;28;20832;-82
2023/06/16 11:06:19;;;;;;;1.60;1.23;;;32.10;50.00;;;;;;4999873;28;20228;-81
2023/06/16 11:08:51;;;;;;;1.40;0.80;;;32.20;50.80;;;;;;5015451;28;20603;-81
2023/06/16 11:11:18;;;;;;;1.40;0.80;;;32.30;49.30;;;;;;5004552;28;20287;-80
2023/06/16 11:13:45;;;;;;;1.40;0.80;;;32.50;50.30;;;;;;5011830;28;20196;-80
2023/06/16 11:16:11;;;;;;;1.40;0.80;;;32.80;49.10;;;;;;5003726;28;20241;-82
2023/06/16 11:18:38;;;;;;;1.40;0.80;;;33.00;48.80;;;;;;5006221;28;20228;-81
2023/06/16 11:21:07;;;;;;;1.40;0.80;;;33.00;47.70;;;;;;5005756;28;20201;-82
2023/06/16 11:23:36;;;;;;;1.40;0.98;;;32.90;48.80;;;;;;5013451;28;20210;-79
2023/06/16 11:26:05;;;;;;;1.40;0.80;;;32.70;47.70;;;;;;5005149;28;20316;-81
2023/06/16 11:28:33;;;;;;;1.40;0.80;;;32.80;48.30;;;;;;5020076;28;20278;-81
2023/06/16 11:31:01;;;;;;;1.40;0.80;;;32.90;46.90;;;;;;5005904;28;20205;-81
2023/06/16 11:33:28;;;;;;;1.40;0.80;;;32.90;48.00;;;;;;5002701;28;20209;-80
2023/06/16 11:35:57;;;;;;;1.40;0.80;;;32.90;48.50;;;;;;5000404;28;20225;-80
2023/06/16 11:38:25;;;;;;;1.40;0.80;;;33.10;47.30;;;;;;5003558;28;20228;-81
2023/06/16 11:40:54;;;;;;;1.50;1.00;;;33.00;47.40;;;;;;5006338;28;20224;-80
2023/06/16 11:43:23;;;;;;;1.40;0.80;;;32.90;48.10;;;;;;5013878;28;20597;-79
2023/06/16 11:45:51;;;;;;;1.40;0.80;;;33.00;48.50;;;;;;5002940;28;20225;-78
2023/06/16 11:48:18;;;;;;;1.55;1.00;;;33.00;48.00;;;;;;5015194;28;20206;-78
2023/06/16 11:50:46;;;;;;;1.40;0.80;;;33.00;47.90;;;;;;5015259;28;20573;-79
2023/06/16 11:53:14;;;;;;;1.40;0.80;;;33.00;47.50;;;;;;4989587;28;20225;-81
2023/06/16 11:55:40;;;;;;;1.40;0.80;;;33.10;47.40;;;;;;5013634;28;20247;-80
2023/06/16 11:58:14;;;;;;;1.40;0.80;;;32.90;47.50;;;;;;5006294;28;20229;-83
2023/06/16 12:00:41;;;;;;;1.38;0.80;;;33.00;48.10;;;;;;5014061;28;20236;-81
2023/06/16 12:03:08;;;;;;;1.40;0.80;;;32.90;48.30;;;;;;5003127;28;20580;-83
2023/06/16 12:05:37;;;;;;;1.40;0.80;;;33.00;50.30;;;;;;5017018;28;20286;-80
2023/06/16 12:08:04;;;;;;;1.40;1.00;;;33.20;49.00;;;;;;5003890;28;20239;-78
2023/06/16 12:10:31;;;;;;;1.40;0.80;;;33.50;47.40;;;;;;5015967;28;20288;-81
2023/06/16 12:12:57;;;;;;;1.40;0.80;;;33.60;48.60;;;;;;4993947;28;20312;-82
2023/06/16 12:15:27;;;;;;;1.40;0.80;;;33.70;48.50;;;;;;5015123;28;20224;-77
2023/06/16 12:17:56;;;;;;;1.40;0.80;;;33.70;47.80;;;;;;4992694;28;20762;-80
2023/06/16 12:20:23;;;;;;;1.40;0.80;;;33.70;47.40;;;;;;5014236;28;20236;-81
2023/06/16 12:22:55;;;;;;;1.40;0.90;;;33.80;47.90;;;;;;5007653;28;20246;-79
2023/06/16 12:25:23;;;;;;;1.38;0.80;;;33.80;47.70;;;;;;5014030;28;20237;-80
2023/06/16 12:27:52;;;;;;;1.40;0.80;;;34.00;47.40;;;;;;4992242;28;20284;-82
2023/06/16 12:30:19;;;;;;;1.40;0.80;;;34.10;48.90;;;;;;5013627;28;20217;-82
2023/06/16 12:32:47;;;;;;;1.40;0.80;;;34.10;48.50;;;;;;4992094;28;20229;-82
2023/06/16 12:35:24;;;;;;;1.40;0.90;;;34.10;46.30;;;;;;5014270;28;20224;-80
2023/06/16 12:37:51;;;;;;;1.60;0.90;;;34.00;48.00;;;;;;4988959;28;20229;-80
2023/06/16 12:40:28;;;;;;;1.40;0.80;;;33.70;47.20;;;;;;5014078;28;20649;-81
2023/06/16 12:42:55;;;;;;;1.40;0.80;;;33.50;48.20;;;;;;4992604;28;20320;-80
2023/06/16 12:45:22;;;;;;;1.40;0.80;;;33.70;48.30;;;;;;5016878;28;20655;-80
2023/06/16 12:47:50;;;;;;;2.53;2.05;;;33.90;47.90;;;;;;4991395;28;20235;-82
2023/06/16 12:50:17;;;;;;;1.40;0.80;;;33.90;47.20;;;;;;5012683;28;20306;-81
2023/06/16 12:52:43;;;;;;;1.40;0.80;;;34.10;46.20;;;;;;4987660;28;20229;-82
2023/06/16 12:55:10;;;;;;;1.40;0.80;;;34.20;47.50;;;;;;5005982;28;20240;-83
2023/06/16 12:57:37;;;;;;;1.40;0.90;;;34.40;48.70;;;;;;4981581;28;20732;-79
2023/06/16 13:00:05;;;;;;;1.40;0.80;;;34.60;47.90;;;;;;5010581;28;20213;-80